sensor_id;sensor_type;location;lat;lon;timestamp;P1;durP1;ratioP1;P2;durP2;ratioP2
7493;SDS011;3788;49.902;8.590;2023-06-10T00:00:02;7.37;;;6.77;;
7493;SDS011;3788;49.902;8.590;2023-06-10T00:02:30;7.37;;;6.77;;
7493;SDS011;3788;49.902;8.590;2023-06-10T00:04:57;6.77;;;6.27;;
7493;SDS011;3788;49.902;8.590;2023-06-10T00:07:24;6.37;;;5.87;;
7493;SDS011;3788;49.902;8.590;2023-06-10T00:09:50;6.30;;;5.80;;
7493;SDS011;3788;49.902;8.590;2023-06-10T00:12:17;6.23;;;5.73;;
7493;SDS011;3788;49.902;8.590;2023-06-10T00:14:46;6.50;;;6.00;;
7493;SDS011;3788;49.902;8.590;2023-06-10T00:17:15;7.03;;;6.40;;
7493;SDS011;3788;49.902;8.590;2023-06-10T00:19:41;6.50;;;6.00;;
7493;SDS011;3788;49.902;8.590;2023-06-10T00:22:08;6.53;;;6.03;;
7493;SDS011;3788;49.902;8.590;2023-06-10T00:24:35;6.40;;;5.80;;
7493;SDS011;3788;49.902;8.590;2023-06-10T00:27:02;6.80;;;6.30;;
7493;SDS011;3788;49.902;8.590;2023-06-10T00:29:30;6.40;;;5.90;;
7493;SDS011;3788;49.902;8.590;2023-06-10T00:31:58;6.80;;;6.30;;
7493;SDS011;3788;49.902;8.590;2023-06-10T00:34:25;6.90;;;6.40;;
7493;SDS011;3788;49.902;8.590;2023-06-10T00:36:52;7.23;;;6.53;;
7493;SDS011;3788;49.902;8.590;2023-06-10T00:39:18;6.93;;;6.33;;
7493;SDS011;3788;49.902;8.590;2023-06-10T00:41:45;6.60;;;6.10;;
7493;SDS011;3788;49.902;8.590;2023-06-10T00:44:12;6.77;;;6.17;;
7493;SDS011;3788;49.902;8.590;2023-06-10T00:46:38;6.73;;;6.07;;
7493;SDS011;3788;49.902;8.590;2023-06-10T00:49:06;6.20;;;5.80;;
7493;SDS011;3788;49.902;8.590;2023-06-10T00:51:33;6.97;;;6.40;;
7493;SDS011;3788;49.902;8.590;2023-06-10T00:54:01;7.30;;;6.70;;
7493;SDS011;3788;49.902;8.590;2023-06-10T00:56:28;6.87;;;6.33;;
7493;SDS011;3788;49.902;8.590;2023-06-10T00:58:55;6.97;;;6.37;;
7493;SDS011;3788;49.902;8.590;2023-06-10T01:01:22;6.70;;;6.20;;
7493;SDS011;3788;49.902;8.590;2023-06-10T01:03:50;6.07;;;5.57;;
7493;SDS011;3788;49.902;8.590;2023-06-10T01:06:20;6.10;;;5.60;;
7493;SDS011;3788;49.902;8.590;2023-06-10T01:09:13;6.93;;;6.30;;
7493;SDS011;3788;49.902;8.590;2023-06-10T01:11:49;5.97;;;5.47;;
7493;SDS011;3788;49.902;8.590;2023-06-10T01:14:20;6.30;;;5.73;;
7493;SDS011;3788;49.902;8.590;2023-06-10T01:16:49;6.30;;;5.70;;
7493;SDS011;3788;49.902;8.590;2023-06-10T01:19:17;6.23;;;5.73;;
7493;SDS011;3788;49.902;8.590;2023-06-10T01:21:45;6.03;;;5.53;;
7493;SDS011;3788;49.902;8.590;2023-06-10T01:24:13;6.40;;;5.80;;
7493;SDS011;3788;49.902;8.590;2023-06-10T01:26:43;6.23;;;5.77;;
7493;SDS011;3788;49.902;8.590;2023-06-10T01:29:11;6.80;;;6.20;;
7493;SDS011;3788;49.902;8.590;2023-06-10T01:31:43;5.77;;;5.37;;
7493;SDS011;3788;49.902;8.590;2023-06-10T01:34:16;6.30;;;5.80;;
7493;SDS011;3788;49.902;8.590;2023-06-10T01:36:46;6.13;;;5.63;;
7493;SDS011;3788;49.902;8.590;2023-06-10T01:39:14;6.07;;;5.57;;
7493;SDS011;3788;49.902;8.590;2023-06-10T01:41:41;7.00;;;6.47;;
7493;SDS011;3788;49.902;8.590;2023-06-10T01:44:08;7.40;;;6.77;;
7493;SDS011;3788;49.902;8.590;2023-06-10T01:46:35;6.63;;;6.13;;
7493;SDS011;3788;49.902;8.590;2023-06-10T01:49:02;6.37;;;5.87;;
7493;SDS011;3788;49.902;8.590;2023-06-10T01:51:28;6.40;;;5.80;;
7493;SDS011;3788;49.902;8.590;2023-06-10T01:53:58;6.43;;;5.83;;
7493;SDS011;3788;49.902;8.590;2023-06-10T01:56:24;6.30;;;5.80;;
7493;SDS011;3788;49.902;8.590;2023-06-10T01:58:51;6.97;;;6.27;;
7493;SDS011;3788;49.902;8.590;2023-06-10T02:01:20;7.57;;;6.87;;
7493;SDS011;3788;49.902;8.590;2023-06-10T02:03:46;7.10;;;6.53;;
7493;SDS011;3788;49.902;8.590;2023-06-10T02:06:13;7.23;;;6.70;;
7493;SDS011;3788;49.902;8.590;2023-06-10T02:08:39;6.37;;;5.87;;
7493;SDS011;3788;49.902;8.590;2023-06-10T02:11:08;6.93;;;6.40;;
7493;SDS011;3788;49.902;8.590;2023-06-10T02:13:35;7.30;;;6.70;;
7493;SDS011;3788;49.902;8.590;2023-06-10T02:16:02;5.93;;;5.43;;
7493;SDS011;3788;49.902;8.590;2023-06-10T02:18:30;6.57;;;6.00;;
7493;SDS011;3788;49.902;8.590;2023-06-10T02:20:57;6.50;;;5.90;;
7493;SDS011;3788;49.902;8.590;2023-06-10T02:23:23;6.47;;;5.93;;
7493;SDS011;3788;49.902;8.590;2023-06-10T02:25:50;6.03;;;5.63;;
7493;SDS011;3788;49.902;8.590;2023-06-10T02:28:18;6.30;;;5.80;;
7493;SDS011;3788;49.902;8.590;2023-06-10T02:30:45;6.57;;;5.97;;
7493;SDS011;3788;49.902;8.590;2023-06-10T02:33:11;5.97;;;5.50;;
7493;SDS011;3788;49.902;8.590;2023-06-10T02:35:38;5.97;;;5.57;;
7493;SDS011;3788;49.902;8.590;2023-06-10T02:38:05;6.50;;;6.00;;
7493;SDS011;3788;49.902;8.590;2023-06-10T02:40:32;6.63;;;6.13;;
7493;SDS011;3788;49.902;8.590;2023-06-10T02:42:59;6.37;;;5.83;;
7493;SDS011;3788;49.902;8.590;2023-06-10T02:45:27;6.50;;;6.00;;
7493;SDS011;3788;49.902;8.590;2023-06-10T02:47:53;5.77;;;5.37;;
7493;SDS011;3788;49.902;8.590;2023-06-10T02:50:20;5.80;;;5.40;;
7493;SDS011;3788;49.902;8.590;2023-06-10T02:52:47;6.30;;;5.80;;
7493;SDS011;3788;49.902;8.590;2023-06-10T02:55:14;6.43;;;5.83;;
7493;SDS011;3788;49.902;8.590;2023-06-10T02:57:41;6.27;;;5.77;;
7493;SDS011;3788;49.902;8.590;2023-06-10T03:00:08;6.57;;;6.07;;
7493;SDS011;3788;49.902;8.590;2023-06-10T03:02:37;7.40;;;6.33;;
7493;SDS011;3788;49.902;8.590;2023-06-10T03:05:04;6.27;;;5.77;;
7493;SDS011;3788;49.902;8.590;2023-06-10T03:07:34;6.60;;;6.10;;
7493;SDS011;3788;49.902;8.590;2023-06-10T03:10:01;7.03;;;6.43;;
7493;SDS011;3788;49.902;8.590;2023-06-10T03:12:28;7.07;;;6.47;;
7493;SDS011;3788;49.902;8.590;2023-06-10T03:14:55;6.83;;;6.33;;
7493;SDS011;3788;49.902;8.590;2023-06-10T03:17:21;7.27;;;6.67;;
7493;SDS011;3788;49.902;8.590;2023-06-10T03:19:49;6.57;;;5.97;;
7493;SDS011;3788;49.902;8.590;2023-06-10T03:22:17;7.60;;;6.90;;
7493;SDS011;3788;49.902;8.590;2023-06-10T03:24:43;7.47;;;6.83;;
7493;SDS011;3788;49.902;8.590;2023-06-10T03:27:11;7.37;;;6.80;;
7493;SDS011;3788;49.902;8.590;2023-06-10T03:29:38;7.80;;;7.20;;
7493;SDS011;3788;49.902;8.590;2023-06-10T03:32:05;7.17;;;6.57;;
7493;SDS011;3788;49.902;8.590;2023-06-10T03:34:32;7.07;;;6.37;;
7493;SDS011;3788;49.902;8.590;2023-06-10T03:37:01;7.40;;;6.70;;
7493;SDS011;3788;49.902;8.590;2023-06-10T03:39:28;7.20;;;6.57;;
7493;SDS011;3788;49.902;8.590;2023-06-10T03:41:54;6.73;;;6.23;;
7493;SDS011;3788;49.902;8.590;2023-06-10T03:44:22;6.97;;;6.37;;
7493;SDS011;3788;49.902;8.590;2023-06-10T03:46:48;7.33;;;6.73;;
7493;SDS011;3788;49.902;8.590;2023-06-10T03:49:15;6.73;;;6.23;;
7493;SDS011;3788;49.902;8.590;2023-06-10T03:51:42;7.40;;;6.80;;
7493;SDS011;3788;49.902;8.590;2023-06-10T03:54:11;7.77;;;7.00;;
7493;SDS011;3788;49.902;8.590;2023-06-10T03:56:38;8.20;;;7.50;;
7493;SDS011;3788;49.902;8.590;2023-06-10T03:59:05;7.57;;;6.90;;
7493;SDS011;3788;49.902;8.590;2023-06-10T04:01:32;6.97;;;6.37;;
7493;SDS011;3788;49.902;8.590;2023-06-10T04:04:00;6.70;;;6.20;;
7493;SDS011;3788;49.902;8.590;2023-06-10T04:06:27;7.47;;;6.87;;
7493;SDS011;3788;49.902;8.590;2023-06-10T04:08:54;7.67;;;6.87;;
7493;SDS011;3788;49.902;8.590;2023-06-10T04:11:23;7.40;;;6.80;;
7493;SDS011;3788;49.902;8.590;2023-06-10T04:13:50;8.07;;;7.37;;
7493;SDS011;3788;49.902;8.590;2023-06-10T04:16:17;8.10;;;7.40;;
7493;SDS011;3788;49.902;8.590;2023-06-10T04:18:43;7.60;;;6.90;;
7493;SDS011;3788;49.902;8.590;2023-06-10T04:21:10;7.13;;;6.53;;
7493;SDS011;3788;49.902;8.590;2023-06-10T04:23:37;6.57;;;6.07;;
7493;SDS011;3788;49.902;8.590;2023-06-10T04:26:04;7.00;;;6.40;;
7493;SDS011;3788;49.902;8.590;2023-06-10T04:28:33;6.87;;;6.27;;
7493;SDS011;3788;49.902;8.590;2023-06-10T04:31:01;7.40;;;6.70;;
7493;SDS011;3788;49.902;8.590;2023-06-10T04:33:29;6.47;;;5.97;;
7493;SDS011;3788;49.902;8.590;2023-06-10T04:35:55;7.10;;;6.50;;
7493;SDS011;3788;49.902;8.590;2023-06-10T04:38:22;6.47;;;5.97;;
7493;SDS011;3788;49.902;8.590;2023-06-10T04:40:49;6.70;;;6.10;;
7493;SDS011;3788;49.902;8.590;2023-06-10T04:43:15;6.47;;;5.97;;
7493;SDS011;3788;49.902;8.590;2023-06-10T04:45:43;7.00;;;6.40;;
7493;SDS011;3788;49.902;8.590;2023-06-10T04:48:10;6.70;;;6.10;;
7493;SDS011;3788;49.902;8.590;2023-06-10T04:50:37;7.73;;;7.03;;
7493;SDS011;3788;49.902;8.590;2023-06-10T04:53:04;6.80;;;6.20;;
7493;SDS011;3788;49.902;8.590;2023-06-10T04:55:30;7.73;;;7.03;;
7493;SDS011;3788;49.902;8.590;2023-06-10T04:57:58;6.77;;;6.27;;
7493;SDS011;3788;49.902;8.590;2023-06-10T05:00:24;7.97;;;7.27;;
7493;SDS011;3788;49.902;8.590;2023-06-10T05:02:53;6.97;;;6.37;;
7493;SDS011;3788;49.902;8.590;2023-06-10T05:05:21;7.23;;;6.73;;
7493;SDS011;3788;49.902;8.590;2023-06-10T05:07:48;7.50;;;6.80;;
7493;SDS011;3788;49.902;8.590;2023-06-10T05:10:14;6.47;;;5.97;;
7493;SDS011;3788;49.902;8.590;2023-06-10T05:12:41;8.07;;;6.43;;
7493;SDS011;3788;49.902;8.590;2023-06-10T05:15:08;6.93;;;6.33;;
7493;SDS011;3788;49.902;8.590;2023-06-10T05:17:35;8.57;;;6.70;;
7493;SDS011;3788;49.902;8.590;2023-06-10T05:20:04;6.90;;;6.30;;
7493;SDS011;3788;49.902;8.590;2023-06-10T05:22:31;7.10;;;6.50;;
7493;SDS011;3788;49.902;8.590;2023-06-10T05:24:57;6.97;;;6.40;;
7493;SDS011;3788;49.902;8.590;2023-06-10T05:27:24;6.10;;;5.60;;
7493;SDS011;3788;49.902;8.590;2023-06-10T05:29:51;6.43;;;5.77;;
7493;SDS011;3788;49.902;8.590;2023-06-10T05:32:17;6.70;;;6.13;;
7493;SDS011;3788;49.902;8.590;2023-06-10T05:34:44;7.10;;;6.50;;
7493;SDS011;3788;49.902;8.590;2023-06-10T05:37:12;7.00;;;6.40;;
7493;SDS011;3788;49.902;8.590;2023-06-10T05:39:39;7.30;;;6.60;;
7493;SDS011;3788;49.902;8.590;2023-06-10T05:42:06;7.03;;;6.43;;
7493;SDS011;3788;49.902;8.590;2023-06-10T05:44:34;6.87;;;6.27;;
7493;SDS011;3788;49.902;8.590;2023-06-10T05:47:00;6.70;;;6.10;;
7493;SDS011;3788;49.902;8.590;2023-06-10T05:49:27;7.33;;;6.73;;
7493;SDS011;3788;49.902;8.590;2023-06-10T05:51:54;6.77;;;6.10;;
7493;SDS011;3788;49.902;8.590;2023-06-10T05:54:24;6.50;;;5.90;;
7493;SDS011;3788;49.902;8.590;2023-06-10T05:56:51;6.73;;;6.03;;
7493;SDS011;3788;49.902;8.590;2023-06-10T05:59:18;6.67;;;6.07;;
7493;SDS011;3788;49.902;8.590;2023-06-10T06:01:45;5.93;;;5.37;;
7493;SDS011;3788;49.902;8.590;2023-06-10T06:04:11;6.90;;;6.23;;
7493;SDS011;3788;49.902;8.590;2023-06-10T06:06:38;6.20;;;5.70;;
7493;SDS011;3788;49.902;8.590;2023-06-10T06:09:05;6.53;;;5.90;;
7493;SDS011;3788;49.902;8.590;2023-06-10T06:11:34;5.83;;;5.33;;
7493;SDS011;3788;49.902;8.590;2023-06-10T06:14:01;7.10;;;6.40;;
7493;SDS011;3788;49.902;8.590;2023-06-10T06:16:27;6.33;;;5.83;;
7493;SDS011;3788;49.902;8.590;2023-06-10T06:18:54;6.53;;;6.03;;
7493;SDS011;3788;49.902;8.590;2023-06-10T06:21:21;7.10;;;6.43;;
7493;SDS011;3788;49.902;8.590;2023-06-10T06:23:47;6.70;;;6.10;;
7493;SDS011;3788;49.902;8.590;2023-06-10T06:26:14;6.30;;;5.80;;
7493;SDS011;3788;49.902;8.590;2023-06-10T06:28:43;6.03;;;5.53;;
7493;SDS011;3788;49.902;8.590;2023-06-10T06:31:09;5.87;;;5.43;;
7493;SDS011;3788;49.902;8.590;2023-06-10T06:33:36;6.50;;;5.90;;
7493;SDS011;3788;49.902;8.590;2023-06-10T06:36:03;6.03;;;5.53;;
7493;SDS011;3788;49.902;8.590;2023-06-10T06:38:30;6.63;;;5.93;;
7493;SDS011;3788;49.902;8.590;2023-06-10T06:40:56;6.23;;;5.70;;
7493;SDS011;3788;49.902;8.590;2023-06-10T06:43:29;7.13;;;5.70;;
7493;SDS011;3788;49.902;8.590;2023-06-10T06:59:53;6.30;;;5.80;;
7493;SDS011;3788;49.902;8.590;2023-06-10T07:02:19;6.87;;;6.27;;
7493;SDS011;3788;49.902;8.590;2023-06-10T07:04:47;6.13;;;5.63;;
7493;SDS011;3788;49.902;8.590;2023-06-10T07:07:15;6.67;;;6.17;;
7493;SDS011;3788;49.902;8.590;2023-06-10T07:09:42;6.90;;;6.30;;
7493;SDS011;3788;49.902;8.590;2023-06-10T07:12:10;7.10;;;6.40;;
7493;SDS011;3788;49.902;8.590;2023-06-10T07:14:37;6.83;;;6.23;;
7493;SDS011;3788;49.902;8.590;2023-06-10T07:17:05;7.10;;;6.50;;
7493;SDS011;3788;49.902;8.590;2023-06-10T07:19:32;7.00;;;6.40;;
7493;SDS011;3788;49.902;8.590;2023-06-10T07:21:59;6.87;;;6.27;;
7493;SDS011;3788;49.902;8.590;2023-06-10T07:24:25;6.50;;;5.90;;
7493;SDS011;3788;49.902;8.590;2023-06-10T07:26:52;7.70;;;7.00;;
7493;SDS011;3788;49.902;8.590;2023-06-10T07:29:18;6.70;;;6.03;;
7493;SDS011;3788;49.902;8.590;2023-06-10T07:31:45;7.07;;;6.47;;
7493;SDS011;3788;49.902;8.590;2023-06-10T07:34:13;6.50;;;6.00;;
7493;SDS011;3788;49.902;8.590;2023-06-10T07:36:40;6.27;;;5.77;;
7493;SDS011;3788;49.902;8.590;2023-06-10T07:39:06;5.97;;;5.30;;
7493;SDS011;3788;49.902;8.590;2023-06-10T07:41:33;6.20;;;5.60;;
7493;SDS011;3788;49.902;8.590;2023-06-10T07:44:00;6.43;;;5.93;;
7493;SDS011;3788;49.902;8.590;2023-06-10T07:46:26;6.07;;;5.57;;
7493;SDS011;3788;49.902;8.590;2023-06-10T07:48:53;6.53;;;5.57;;
7493;SDS011;3788;49.902;8.590;2023-06-10T07:51:22;5.93;;;5.50;;
7493;SDS011;3788;49.902;8.590;2023-06-10T07:53:48;5.87;;;5.47;;
7493;SDS011;3788;49.902;8.590;2023-06-10T07:56:15;6.03;;;5.60;;
7493;SDS011;3788;49.902;8.590;2023-06-10T07:58:42;6.63;;;6.13;;
7493;SDS011;3788;49.902;8.590;2023-06-10T08:01:09;6.65;;;6.15;;
7493;SDS011;3788;49.902;8.590;2023-06-10T08:03:35;6.63;;;6.13;;
7493;SDS011;3788;49.902;8.590;2023-06-10T08:06:02;7.15;;;6.65;;
7493;SDS011;3788;49.902;8.590;2023-06-10T08:08:30;6.28;;;5.85;;
7493;SDS011;3788;49.902;8.590;2023-06-10T08:10:57;7.97;;;7.18;;
7493;SDS011;3788;49.902;8.590;2023-06-10T08:13:24;7.60;;;7.00;;
7493;SDS011;3788;49.902;8.590;2023-06-10T08:15:50;6.50;;;5.90;;
7493;SDS011;3788;49.902;8.590;2023-06-10T08:18:18;6.40;;;5.90;;
7493;SDS011;3788;49.902;8.590;2023-06-10T08:20:45;6.13;;;5.63;;
7493;SDS011;3788;49.902;8.590;2023-06-10T08:23:11;6.03;;;5.63;;
7493;SDS011;3788;49.902;8.590;2023-06-10T08:25:39;6.07;;;5.57;;
7493;SDS011;3788;49.902;8.590;2023-06-10T08:28:06;6.85;;;6.32;;
7493;SDS011;3788;49.902;8.590;2023-06-10T08:30:33;6.95;;;6.45;;
7493;SDS011;3788;49.902;8.590;2023-06-10T08:32:59;7.03;;;6.43;;
7493;SDS011;3788;49.902;8.590;2023-06-10T08:35:26;6.63;;;6.03;;
7493;SDS011;3788;49.902;8.590;2023-06-10T08:37:53;6.72;;;6.15;;
7493;SDS011;3788;49.902;8.590;2023-06-10T08:40:19;7.30;;;6.60;;
7493;SDS011;3788;49.902;8.590;2023-06-10T08:42:48;6.63;;;6.03;;
7493;SDS011;3788;49.902;8.590;2023-06-10T08:45:19;6.43;;;5.93;;
7493;SDS011;3788;49.902;8.590;2023-06-10T08:47:49;6.97;;;6.47;;
7493;SDS011;3788;49.902;8.590;2023-06-10T08:50:18;7.07;;;6.25;;
7493;SDS011;3788;49.902;8.590;2023-06-10T08:52:46;6.22;;;5.82;;
7493;SDS011;3788;49.902;8.590;2023-06-10T08:55:17;6.82;;;6.32;;
7493;SDS011;3788;49.902;8.590;2023-06-10T08:57:52;7.50;;;6.90;;
7493;SDS011;3788;49.902;8.590;2023-06-10T09:00:19;7.05;;;6.45;;
7493;SDS011;3788;49.902;8.590;2023-06-10T09:02:47;7.35;;;6.72;;
7493;SDS011;3788;49.902;8.590;2023-06-10T09:05:14;6.55;;;6.00;;
7493;SDS011;3788;49.902;8.590;2023-06-10T09:07:41;6.78;;;6.10;;
7493;SDS011;3788;49.902;8.590;2023-06-10T09:10:09;6.70;;;6.10;;
7493;SDS011;3788;49.902;8.590;2023-06-10T09:12:37;6.80;;;6.25;;
7493;SDS011;3788;49.902;8.590;2023-06-10T09:15:05;7.60;;;6.90;;
7493;SDS011;3788;49.902;8.590;2023-06-10T09:17:33;7.05;;;6.50;;
7493;SDS011;3788;49.902;8.590;2023-06-10T09:20:01;7.22;;;6.72;;
7493;SDS011;3788;49.902;8.590;2023-06-10T09:22:27;7.47;;;6.78;;
7493;SDS011;3788;49.902;8.590;2023-06-10T09:25:01;7.07;;;6.47;;
7493;SDS011;3788;49.902;8.590;2023-06-10T09:27:29;7.10;;;6.45;;
7493;SDS011;3788;49.902;8.590;2023-06-10T09:29:57;6.80;;;6.30;;
7493;SDS011;3788;49.902;8.590;2023-06-10T09:32:25;6.28;;;5.80;;
7493;SDS011;3788;49.902;8.590;2023-06-10T09:34:53;6.30;;;5.80;;
7493;SDS011;3788;49.902;8.590;2023-06-10T09:37:20;6.30;;;5.78;;
7493;SDS011;3788;49.902;8.590;2023-06-10T09:39:56;7.38;;;6.65;;
7493;SDS011;3788;49.902;8.590;2023-06-10T09:42:32;6.63;;;6.15;;
7493;SDS011;3788;49.902;8.590;2023-06-10T09:45:00;6.95;;;6.35;;
7493;SDS011;3788;49.902;8.590;2023-06-10T09:47:28;6.10;;;5.70;;
7493;SDS011;3788;49.902;8.590;2023-06-10T09:49:55;6.57;;;6.03;;
7493;SDS011;3788;49.902;8.590;2023-06-10T09:52:22;6.55;;;5.93;;
7493;SDS011;3788;49.902;8.590;2023-06-10T09:54:49;6.10;;;5.53;;
7493;SDS011;3788;49.902;8.590;2023-06-10T09:57:16;6.22;;;5.68;;
7493;SDS011;3788;49.902;8.590;2023-06-10T09:59:44;6.38;;;5.88;;
7493;SDS011;3788;49.902;8.590;2023-06-10T10:02:13;6.88;;;6.35;;
7493;SDS011;3788;49.902;8.590;2023-06-10T10:04:42;6.25;;;5.75;;
7493;SDS011;3788;49.902;8.590;2023-06-10T10:07:08;6.75;;;6.22;;
7493;SDS011;3788;49.902;8.590;2023-06-10T10:09:35;6.90;;;6.40;;
7493;SDS011;3788;49.902;8.590;2023-06-10T10:12:02;6.78;;;6.28;;
7493;SDS011;3788;49.902;8.590;2023-06-10T10:14:35;6.55;;;5.95;;
7493;SDS011;3788;49.902;8.590;2023-06-10T10:17:04;6.97;;;6.47;;
7493;SDS011;3788;49.902;8.590;2023-06-10T10:19:35;8.82;;;6.40;;
7493;SDS011;3788;49.902;8.590;2023-06-10T10:22:07;6.82;;;6.30;;
7493;SDS011;3788;49.902;8.590;2023-06-10T10:24:38;7.75;;;7.15;;
7493;SDS011;3788;49.902;8.590;2023-06-10T10:27:17;6.60;;;6.10;;
7493;SDS011;3788;49.902;8.590;2023-06-10T10:29:47;6.80;;;6.20;;
7493;SDS011;3788;49.902;8.590;2023-06-10T10:32:17;7.30;;;6.80;;
7493;SDS011;3788;49.902;8.590;2023-06-10T10:34:48;6.87;;;6.37;;
7493;SDS011;3788;49.902;8.590;2023-06-10T10:37:20;6.47;;;5.97;;
7493;SDS011;3788;49.902;8.590;2023-06-10T10:39:47;6.50;;;5.95;;
7493;SDS011;3788;49.902;8.590;2023-06-10T10:42:14;6.63;;;6.03;;
7493;SDS011;3788;49.902;8.590;2023-06-10T10:44:43;5.97;;;5.47;;
7493;SDS011;3788;49.902;8.590;2023-06-10T10:47:10;6.53;;;6.05;;
7493;SDS011;3788;49.902;8.590;2023-06-10T10:49:38;6.17;;;5.77;;
7493;SDS011;3788;49.902;8.590;2023-06-10T10:52:11;6.20;;;5.80;;
7493;SDS011;3788;49.902;8.590;2023-06-10T10:54:43;5.33;;;4.93;;
7493;SDS011;3788;49.902;8.590;2023-06-10T10:57:12;5.10;;;4.67;;
7493;SDS011;3788;49.902;8.590;2023-06-10T10:59:43;6.90;;;4.73;;
7493;SDS011;3788;49.902;8.590;2023-06-10T11:02:10;5.50;;;5.00;;
7493;SDS011;3788;49.902;8.590;2023-06-10T11:04:44;5.60;;;5.10;;
7493;SDS011;3788;49.902;8.590;2023-06-10T11:07:12;5.37;;;4.87;;
7493;SDS011;3788;49.902;8.590;2023-06-10T11:09:42;8.47;;;4.73;;
7493;SDS011;3788;49.902;8.590;2023-06-10T11:12:24;5.33;;;4.93;;
7493;SDS011;3788;49.902;8.590;2023-06-10T11:14:53;5.77;;;5.27;;
7493;SDS011;3788;49.902;8.590;2023-06-10T11:17:21;6.47;;;5.17;;
7493;SDS011;3788;49.902;8.590;2023-06-10T11:19:48;5.73;;;5.33;;
7493;SDS011;3788;49.902;8.590;2023-06-10T11:22:16;6.10;;;5.40;;
7493;SDS011;3788;49.902;8.590;2023-06-10T11:24:48;5.60;;;5.20;;
7493;SDS011;3788;49.902;8.590;2023-06-10T11:27:17;5.33;;;4.93;;
7493;SDS011;3788;49.902;8.590;2023-06-10T11:29:57;5.30;;;4.90;;
7493;SDS011;3788;49.902;8.590;2023-06-10T11:32:25;4.77;;;4.37;;
7493;SDS011;3788;49.902;8.590;2023-06-10T11:34:56;4.40;;;4.10;;
7493;SDS011;3788;49.902;8.590;2023-06-10T11:37:23;4.67;;;4.33;;
7493;SDS011;3788;49.902;8.590;2023-06-10T11:39:52;5.03;;;4.70;;
7493;SDS011;3788;49.902;8.590;2023-06-10T11:42:20;4.37;;;4.07;;
7493;SDS011;3788;49.902;8.590;2023-06-10T11:44:48;4.40;;;4.00;;
7493;SDS011;3788;49.902;8.590;2023-06-10T11:47:15;4.70;;;4.30;;
7493;SDS011;3788;49.902;8.590;2023-06-10T11:49:42;4.33;;;3.93;;
7493;SDS011;3788;49.902;8.590;2023-06-10T11:52:10;4.07;;;3.77;;
7493;SDS011;3788;49.902;8.590;2023-06-10T11:54:38;4.40;;;4.03;;
7493;SDS011;3788;49.902;8.590;2023-06-10T11:57:13;4.23;;;3.80;;
7493;SDS011;3788;49.902;8.590;2023-06-10T11:59:42;4.53;;;4.13;;
7493;SDS011;3788;49.902;8.590;2023-06-10T12:02:14;4.00;;;3.70;;
7493;SDS011;3788;49.902;8.590;2023-06-10T12:04:41;3.50;;;3.30;;
7493;SDS011;3788;49.902;8.590;2023-06-10T12:07:07;3.93;;;3.63;;
7493;SDS011;3788;49.902;8.590;2023-06-10T12:09:34;3.50;;;3.20;;
7493;SDS011;3788;49.902;8.590;2023-06-10T12:12:02;4.13;;;3.77;;
7493;SDS011;3788;49.902;8.590;2023-06-10T12:17:23;4.10;;;3.80;;
7493;SDS011;3788;49.902;8.590;2023-06-10T12:20:03;4.50;;;3.87;;
7493;SDS011;3788;49.902;8.590;2023-06-10T12:22:35;4.00;;;3.70;;
7493;SDS011;3788;49.902;8.590;2023-06-10T12:25:03;4.70;;;3.87;;
7493;SDS011;3788;49.902;8.590;2023-06-10T12:27:31;4.33;;;4.03;;
7493;SDS011;3788;49.902;8.590;2023-06-10T12:30:01;4.77;;;3.83;;
7493;SDS011;3788;49.902;8.590;2023-06-10T12:32:35;4.27;;;3.87;;
7493;SDS011;3788;49.902;8.590;2023-06-10T12:35:04;4.93;;;4.40;;
7493;SDS011;3788;49.902;8.590;2023-06-10T12:37:31;5.57;;;4.07;;
7493;SDS011;3788;49.902;8.590;2023-06-10T12:39:59;4.57;;;4.17;;
7493;SDS011;3788;49.902;8.590;2023-06-10T12:42:27;4.20;;;3.90;;
7493;SDS011;3788;49.902;8.590;2023-06-10T12:44:55;4.70;;;4.30;;
7493;SDS011;3788;49.902;8.590;2023-06-10T12:47:30;4.67;;;4.27;;
7493;SDS011;3788;49.902;8.590;2023-06-10T12:49:57;4.37;;;4.07;;
7493;SDS011;3788;49.902;8.590;2023-06-10T12:52:24;4.63;;;4.33;;
7493;SDS011;3788;49.902;8.590;2023-06-10T12:54:51;4.50;;;4.10;;
7493;SDS011;3788;49.902;8.590;2023-06-10T12:57:19;4.10;;;3.70;;
7493;SDS011;3788;49.902;8.590;2023-06-10T12:59:45;4.73;;;4.33;;
7493;SDS011;3788;49.902;8.590;2023-06-10T13:02:17;4.33;;;3.93;;
7493;SDS011;3788;49.902;8.590;2023-06-10T13:04:46;4.40;;;4.10;;
7493;SDS011;3788;49.902;8.590;2023-06-10T13:07:12;4.73;;;3.80;;
7493;SDS011;3788;49.902;8.590;2023-06-10T13:09:39;5.00;;;4.60;;
7493;SDS011;3788;49.902;8.590;2023-06-10T13:12:06;5.40;;;4.50;;
7493;SDS011;3788;49.902;8.590;2023-06-10T13:14:34;4.90;;;4.50;;
7493;SDS011;3788;49.902;8.590;2023-06-10T13:17:02;4.63;;;4.33;;
7493;SDS011;3788;49.902;8.590;2023-06-10T13:19:30;4.70;;;4.20;;
7493;SDS011;3788;49.902;8.590;2023-06-10T13:21:58;5.50;;;4.30;;
7493;SDS011;3788;49.902;8.590;2023-06-10T13:24:25;4.30;;;3.97;;
7493;SDS011;3788;49.902;8.590;2023-06-10T13:26:52;4.27;;;3.97;;
7493;SDS011;3788;49.902;8.590;2023-06-10T13:29:19;4.00;;;3.70;;
7493;SDS011;3788;49.902;8.590;2023-06-10T13:31:46;4.77;;;4.33;;
7493;SDS011;3788;49.902;8.590;2023-06-10T13:34:13;4.50;;;4.20;;
7493;SDS011;3788;49.902;8.590;2023-06-10T13:36:39;5.07;;;4.57;;
7493;SDS011;3788;49.902;8.590;2023-06-10T13:39:07;4.60;;;4.30;;
7493;SDS011;3788;49.902;8.590;2023-06-10T13:41:34;4.80;;;4.50;;
7493;SDS011;3788;49.902;8.590;2023-06-10T13:44:00;4.60;;;4.30;;
7493;SDS011;3788;49.902;8.590;2023-06-10T13:46:28;4.60;;;4.30;;
7493;SDS011;3788;49.902;8.590;2023-06-10T13:48:54;4.83;;;4.43;;
7493;SDS011;3788;49.902;8.590;2023-06-10T13:51:21;4.67;;;4.37;;
7493;SDS011;3788;49.902;8.590;2023-06-10T13:53:48;5.10;;;4.73;;
7493;SDS011;3788;49.902;8.590;2023-06-10T13:56:18;5.50;;;5.00;;
7493;SDS011;3788;49.902;8.590;2023-06-10T13:58:44;4.80;;;4.40;;
7493;SDS011;3788;49.902;8.590;2023-06-10T14:01:11;5.57;;;5.10;;
7493;SDS011;3788;49.902;8.590;2023-06-10T14:03:38;4.80;;;4.50;;
7493;SDS011;3788;49.902;8.590;2023-06-10T14:06:05;5.00;;;4.60;;
7493;SDS011;3788;49.902;8.590;2023-06-10T14:08:32;5.40;;;5.00;;
7493;SDS011;3788;49.902;8.590;2023-06-10T14:10:59;5.50;;;5.00;;
7493;SDS011;3788;49.902;8.590;2023-06-10T14:13:27;5.50;;;5.10;;
7493;SDS011;3788;49.902;8.590;2023-06-10T14:15:54;5.23;;;4.83;;
7493;SDS011;3788;49.902;8.590;2023-06-10T14:18:21;5.70;;;5.20;;
7493;SDS011;3788;49.902;8.590;2023-06-10T14:20:48;4.53;;;4.10;;
7493;SDS011;3788;49.902;8.590;2023-06-10T14:23:14;4.60;;;4.20;;
7493;SDS011;3788;49.902;8.590;2023-06-10T14:25:42;4.60;;;4.23;;
7493;SDS011;3788;49.902;8.590;2023-06-10T14:28:09;4.73;;;4.33;;
7493;SDS011;3788;49.902;8.590;2023-06-10T14:30:37;4.83;;;4.43;;
7493;SDS011;3788;49.902;8.590;2023-06-10T14:33:04;4.77;;;4.47;;
7493;SDS011;3788;49.902;8.590;2023-06-10T14:35:30;6.03;;;5.50;;
7493;SDS011;3788;49.902;8.590;2023-06-10T14:37:57;5.73;;;5.13;;
7493;SDS011;3788;49.902;8.590;2023-06-10T14:40:24;5.47;;;4.97;;
7493;SDS011;3788;49.902;8.590;2023-06-10T14:42:53;5.77;;;5.37;;
7493;SDS011;3788;49.902;8.590;2023-06-10T14:45:20;5.40;;;4.90;;
7493;SDS011;3788;49.902;8.590;2023-06-10T14:47:48;5.27;;;4.87;;
7493;SDS011;3788;49.902;8.590;2023-06-10T14:50:14;5.77;;;5.30;;
7493;SDS011;3788;49.902;8.590;2023-06-10T14:52:41;4.67;;;4.37;;
7493;SDS011;3788;49.902;8.590;2023-06-10T14:55:08;5.10;;;4.60;;
7493;SDS011;3788;49.902;8.590;2023-06-10T14:57:35;5.87;;;5.47;;
7493;SDS011;3788;49.902;8.590;2023-06-10T15:00:01;5.67;;;5.17;;
7493;SDS011;3788;49.902;8.590;2023-06-10T15:02:28;5.37;;;4.83;;
7493;SDS011;3788;49.902;8.590;2023-06-10T15:04:56;5.50;;;5.00;;
7493;SDS011;3788;49.902;8.590;2023-06-10T15:07:23;5.00;;;4.60;;
7493;SDS011;3788;49.902;8.590;2023-06-10T15:09:50;4.50;;;4.10;;
7493;SDS011;3788;49.902;8.590;2023-06-10T15:12:17;5.10;;;4.60;;
7493;SDS011;3788;49.902;8.590;2023-06-10T15:14:44;4.97;;;4.67;;
7493;SDS011;3788;49.902;8.590;2023-06-10T15:17:10;4.97;;;4.57;;
7493;SDS011;3788;49.902;8.590;2023-06-10T15:19:37;4.30;;;4.00;;
7493;SDS011;3788;49.902;8.590;2023-06-10T15:22:05;4.80;;;4.40;;
7493;SDS011;3788;49.902;8.590;2023-06-10T15:24:32;4.70;;;4.40;;
7493;SDS011;3788;49.902;8.590;2023-06-10T15:26:59;4.90;;;4.40;;
7493;SDS011;3788;49.902;8.590;2023-06-10T15:29:26;5.10;;;4.70;;
7493;SDS011;3788;49.902;8.590;2023-06-10T15:31:53;5.73;;;5.23;;
7493;SDS011;3788;49.902;8.590;2023-06-10T15:34:20;11.57;;;6.23;;